Time;durP1;ratioP1;P1;durP2;ratioP2;P2;SDS_P1;SDS_P2;PMS_P1;PMS_P2;Temp;Humidity;BMP_temperature;BMP_pressure;BME280_temperature;BME280_humidity;BME280_pressure;Samples;Min_cycle;Max_cycle;Signal;HPM_P1;HPM_P2
2022/07/12 00:00:44;;;;;;;11.00;4.90;;;15.30;99.90;;;;;;5045806;28;20191;-69
2022/07/12 00:03:10;;;;;;;9.60;4.37;;;15.30;99.90;;;;;;5043959;28;20281;-69
2022/07/12 00:05:36;;;;;;;13.40;5.67;;;15.20;99.90;;;;;;5045376;28;20229;-70
2022/07/12 00:08:01;;;;;;;12.57;5.43;;;15.20;99.90;;;;;;5044256;28;20305;-69
2022/07/12 00:10:27;;;;;;;12.03;5.10;;;15.10;99.90;;;;;;5045944;28;20286;-69
2022/07/12 00:12:54;;;;;;;16.07;6.00;;;15.10;99.90;;;;;;5043386;28;20210;-68
2022/07/12 00:15:19;;;;;;;12.33;5.97;;;15.00;99.90;;;;;;5045264;28;20226;-69
2022/07/12 00:17:45;;;;;;;11.77;4.63;;;15.00;99.90;;;;;;5043803;28;20227;-85
2022/07/12 00:20:11;;;;;;;25.33;12.03;;;15.00;99.90;;;;;;5026062;28;20193;-71
2022/07/12 00:22:36;;;;;;;6.20;3.87;;;15.00;99.90;;;;;;5044228;28;20203;-72
2022/07/12 00:25:02;;;;;;;10.07;4.57;;;15.00;99.90;;;;;;5046051;28;20218;-73
2022/07/12 00:27:28;;;;;;;9.50;4.63;;;14.90;99.90;;;;;;5043550;28;20683;-71
2022/07/12 00:29:54;;;;;;;9.00;4.83;;;15.00;99.90;;;;;;5046027;28;20178;-73
2022/07/12 00:32:19;;;;;;;8.03;4.70;;;15.00;99.90;;;;;;5043428;28;20195;-73
2022/07/12 00:34:45;;;;;;;8.23;4.60;;;14.90;99.90;;;;;;5045850;28;20226;-70
2022/07/12 00:37:10;;;;;;;9.23;4.53;;;14.90;99.90;;;;;;5043431;28;20195;-71
2022/07/12 00:39:36;;;;;;;7.87;4.23;;;14.90;99.90;;;;;;5045673;28;20278;-71
2022/07/12 00:42:01;;;;;;;8.57;3.90;;;14.80;99.90;;;;;;5043679;28;20199;-70
2022/07/12 00:44:27;;;;;;;9.37;4.13;;;14.80;99.90;;;;;;5046278;28;20191;-71
2022/07/12 00:46:53;;;;;;;20.47;10.87;;;14.80;99.90;;;;;;5043695;28;20203;-71
2022/07/12 00:49:18;;;;;;;6.00;3.90;;;14.80;99.90;;;;;;5045777;28;20206;-77
2022/07/12 00:51:44;;;;;;;16.13;10.10;;;14.70;99.90;;;;;;5043283;28;20682;-73
2022/07/12 00:54:10;;;;;;;6.40;4.50;;;14.70;99.90;;;;;;5045866;28;20203;-73
2022/07/12 00:56:37;;;;;;;8.47;4.50;;;14.70;99.90;;;;;;5045218;28;20531;-74
2022/07/12 00:59:03;;;;;;;9.20;4.80;;;14.70;99.90;;;;;;5045406;28;20198;-74
2022/07/12 01:01:28;;;;;;;11.70;4.97;;;14.70;99.90;;;;;;5045150;28;20237;-73
2022/07/12 01:03:56;;;;;;;10.07;5.17;;;14.60;99.90;;;;;;5043630;28;20198;-74
2022/07/12 01:06:22;;;;;;;8.23;4.47;;;14.60;99.90;;;;;;5045000;28;20234;-74
2022/07/12 01:08:47;;;;;;;12.50;5.73;;;14.60;99.90;;;;;;5043267;28;20210;-74
2022/07/12 01:11:14;;;;;;;9.50;5.47;;;14.50;99.90;;;;;;5044998;28;20203;-73
2022/07/12 01:13:40;;;;;;;7.60;3.70;;;14.40;99.90;;;;;;5043304;28;20230;-75
2022/07/12 01:16:07;;;;;;;7.10;4.20;;;14.40;99.90;;;;;;5044522;28;20194;-74
2022/07/12 01:18:33;;;;;;;7.10;4.10;;;14.30;99.90;;;;;;5043645;28;20203;-73
2022/07/12 01:21:04;;;;;;;10.43;5.03;;;14.30;99.90;;;;;;5044910;28;20692;-73
2022/07/12 01:23:30;;;;;;;6.33;3.83;;;14.30;99.90;;;;;;5039306;28;20199;-73
2022/07/12 01:25:56;;;;;;;9.43;4.80;;;14.30;99.90;;;;;;5045443;28;20206;-73
2022/07/12 01:28:21;;;;;;;6.27;4.20;;;14.20;99.90;;;;;;5028772;28;20261;-73
2022/07/12 01:30:48;;;;;;;7.33;4.50;;;14.10;99.90;;;;;;5044791;28;20553;-73
2022/07/12 01:33:15;;;;;;;10.57;5.57;;;14.10;99.90;;;;;;5043543;28;20226;-73
2022/07/12 01:35:41;;;;;;;7.60;4.73;;;14.10;99.90;;;;;;5026778;28;20187;-74
2022/07/12 01:38:07;;;;;;;9.00;4.60;;;14.00;99.90;;;;;;5042878;28;20793;-72
2022/07/12 01:40:35;;;;;;;6.97;4.17;;;14.00;99.90;;;;;;5044988;28;20199;-72
2022/07/12 01:43:01;;;;;;;6.90;4.07;;;13.90;99.90;;;;;;5043311;28;20243;-74
2022/07/12 01:45:27;;;;;;;8.00;4.43;;;13.90;99.90;;;;;;5048337;28;20261;-73
2022/07/12 01:47:53;;;;;;;9.43;5.37;;;13.90;99.90;;;;;;5046676;28;20218;-72
2022/07/12 01:50:18;;;;;;;8.97;4.90;;;13.80;99.90;;;;;;5048812;28;20295;-73
2022/07/12 01:52:44;;;;;;;8.90;4.77;;;13.90;99.90;;;;;;5046707;28;20681;-73
2022/07/12 01:55:11;;;;;;;8.23;4.67;;;13.80;99.90;;;;;;5048685;28;20235;-73
2022/07/12 01:57:40;;;;;;;8.43;4.03;;;13.80;99.90;;;;;;5046883;28;20566;-73
2022/07/12 02:00:06;;;;;;;7.70;4.47;;;13.90;99.90;;;;;;5048803;28;20255;-74
2022/07/12 02:02:32;;;;;;;9.70;4.93;;;13.90;99.90;;;;;;5046664;28;20692;-73
2022/07/12 02:05:00;;;;;;;9.17;4.93;;;13.90;99.90;;;;;;5048307;28;20199;-73
2022/07/12 02:07:25;;;;;;;7.83;3.83;;;13.80;99.90;;;;;;5046155;28;20230;-73
2022/07/12 02:09:51;;;;;;;7.77;4.60;;;13.70;99.90;;;;;;5049136;28;20240;-72
2022/07/12 02:12:16;;;;;;;9.77;4.43;;;13.80;99.90;;;;;;5046485;28;20752;-72
2022/07/12 02:14:42;;;;;;;7.90;4.13;;;13.80;99.90;;;;;;5048231;28;20207;-72
2022/07/12 02:17:07;;;;;;;9.07;4.60;;;13.80;99.90;;;;;;5046122;28;20604;-72
2022/07/12 02:19:33;;;;;;;7.17;3.60;;;13.80;99.90;;;;;;5048676;28;20248;-74
2022/07/12 02:21:58;;;;;;;7.87;4.67;;;13.80;99.90;;;;;;5043313;28;20195;-73
2022/07/12 02:24:24;;;;;;;6.77;4.20;;;13.80;99.90;;;;;;5037034;28;20550;-72
2022/07/12 02:26:50;;;;;;;15.50;9.37;;;13.70;99.90;;;;;;5046498;28;20564;-72
2022/07/12 02:29:15;;;;;;;10.93;4.90;;;13.70;99.90;;;;;;5048843;28;20186;-72
2022/07/12 02:31:41;;;;;;;31.43;13.53;;;13.60;99.90;;;;;;5047528;28;20193;-73
2022/07/12 02:34:07;;;;;;;12.57;6.40;;;13.50;99.90;;;;;;5047293;28;20294;-73
2022/07/12 02:36:33;;;;;;;14.43;5.87;;;13.40;99.90;;;;;;5048380;28;20690;-73
2022/07/12 02:39:02;;;;;;;10.17;4.93;;;13.40;99.90;;;;;;5045681;28;20211;-73
2022/07/12 02:41:28;;;;;;;8.37;4.83;;;13.40;99.90;;;;;;5047913;28;20197;-73
2022/07/12 02:43:54;;;;;;;11.40;4.83;;;13.50;99.90;;;;;;5045955;28;20198;-72
2022/07/12 02:46:19;;;;;;;7.83;4.53;;;13.50;99.90;;;;;;5047932;28;20194;-73
2022/07/12 02:48:44;;;;;;;6.87;4.10;;;13.50;99.90;;;;;;5045856;28;20218;-72
2022/07/12 02:51:10;;;;;;;11.30;4.87;;;13.50;99.90;;;;;;5047661;28;20201;-73
2022/07/12 02:53:36;;;;;;;7.47;4.40;;;13.40;99.90;;;;;;5045732;28;20692;-73
2022/07/12 02:56:02;;;;;;;5.13;3.33;;;13.40;99.90;;;;;;5046516;28;20480;-73
2022/07/12 02:58:28;;;;;;;6.93;3.77;;;13.40;99.90;;;;;;5045645;28;20227;-74
2022/07/12 03:00:54;;;;;;;8.93;5.07;;;13.70;99.90;;;;;;5047336;28;20717;-72
2022/07/12 03:03:19;;;;;;;6.37;3.60;;;13.70;99.90;;;;;;5045847;28;20209;-72
2022/07/12 03:05:45;;;;;;;11.83;6.73;;;13.50;99.90;;;;;;5046871;28;20256;-73
2022/07/12 03:08:12;;;;;;;11.00;6.27;;;13.40;99.90;;;;;;5045511;28;20252;-72
2022/07/12 03:10:38;;;;;;;7.67;4.80;;;13.30;99.90;;;;;;5047119;28;20191;-73
2022/07/12 03:13:04;;;;;;;7.70;4.30;;;13.30;99.90;;;;;;5045364;28;20570;-73
2022/07/12 03:15:30;;;;;;;7.73;4.30;;;13.40;99.90;;;;;;5046993;28;20190;-73
2022/07/12 03:17:57;;;;;;;9.60;4.50;;;13.40;99.90;;;;;;5045710;28;20199;-72
2022/07/12 03:20:22;;;;;;;11.83;5.63;;;13.80;99.90;;;;;;5047125;28;20195;-72
2022/07/12 03:22:54;;;;;;;11.77;3.80;;;13.90;99.90;;;;;;5044808;28;20235;-73
2022/07/12 03:25:23;;;;;;;9.53;4.00;;;13.80;99.90;;;;;;5031699;28;20183;-72
2022/07/12 03:27:48;;;;;;;8.70;4.47;;;13.80;99.90;;;;;;5044906;28;20206;-73
2022/07/12 03:30:14;;;;;;;8.97;4.97;;;13.70;99.90;;;;;;5046886;28;20199;-72
2022/07/12 03:32:40;;;;;;;8.17;4.60;;;13.50;99.90;;;;;;5045233;28;20677;-73
2022/07/12 03:35:06;;;;;;;10.10;5.30;;;13.40;99.90;;;;;;5046737;28;20215;-73
2022/07/12 03:37:40;;;;;;;12.70;5.67;;;13.30;99.90;;;;;;5044617;28;20333;-73
2022/07/12 03:40:07;;;;;;;7.77;4.23;;;13.40;99.90;;;;;;5047112;28;20256;-73
2022/07/12 03:42:32;;;;;;;14.90;5.70;;;13.50;99.90;;;;;;5044590;28;20279;-72
2022/07/12 03:44:57;;;;;;;10.47;4.53;;;13.50;99.90;;;;;;5046732;28;20603;-73
2022/07/12 03:47:23;;;;;;;12.80;5.80;;;13.40;99.90;;;;;;5044911;28;20358;-73
2022/07/12 03:49:48;;;;;;;14.20;6.03;;;13.40;99.90;;;;;;5046600;28;20275;-74
2022/07/12 03:52:14;;;;;;;13.07;5.87;;;13.30;99.90;;;;;;5044819;28;20198;-73
2022/07/12 03:54:39;;;;;;;16.97;6.57;;;13.40;99.90;;;;;;5046629;28;20582;-72
2022/07/12 03:57:14;;;;;;;16.67;6.17;;;13.50;99.90;;;;;;5044862;28;20729;-72
2022/07/12 03:59:41;;;;;;;13.43;6.00;;;13.70;99.90;;;;;;5047121;28;20254;-73
2022/07/12 04:02:06;;;;;;;15.27;5.93;;;13.70;99.90;;;;;;5044254;28;20199;-73
2022/07/12 04:04:32;;;;;;;13.83;5.23;;;13.70;99.90;;;;;;5029070;28;20288;-72
2022/07/12 04:06:57;;;;;;;19.80;7.10;;;13.70;99.90;;;;;;5044005;28;20226;-72
2022/07/12 04:09:23;;;;;;;13.67;5.30;;;13.70;99.90;;;;;;5046459;28;20187;-73
2022/07/12 04:11:49;;;;;;;49.00;17.70;;;13.70;99.90;;;;;;5044172;28;20191;-73
2022/07/12 04:14:14;;;;;;;18.57;5.93;;;13.70;99.90;;;;;;5046775;28;20217;-74
2022/07/12 04:16:40;;;;;;;36.73;13.63;;;13.70;99.90;;;;;;5044064;28;20261;-73
2022/07/12 04:19:06;;;;;;;14.63;5.80;;;13.80;99.90;;;;;;5028092;28;20186;-74
2022/07/12 04:21:31;;;;;;;20.10;8.13;;;13.70;99.90;;;;;;5045894;28;20277;-73
2022/07/12 04:23:57;;;;;;;14.80;5.67;;;13.80;99.90;;;;;;5044133;28;20668;-72
2022/07/12 04:26:23;;;;;;;15.60;6.33;;;13.90;99.90;;;;;;5046070;28;20252;-72
2022/07/12 04:28:48;;;;;;;15.83;7.17;;;13.90;99.90;;;;;;5044057;28;20234;-73
2022/07/12 04:31:14;;;;;;;9.40;4.40;;;13.90;99.90;;;;;;5045808;28;20194;-73
2022/07/12 04:33:39;;;;;;;13.43;5.53;;;13.90;99.90;;;;;;5043986;28;20211;-74
2022/07/12 04:36:05;;;;;;;11.37;4.77;;;14.10;99.90;;;;;;5045598;28;20285;-74
2022/07/12 04:38:30;;;;;;;15.00;5.63;;;14.10;99.90;;;;;;5044147;28;20558;-75
2022/07/12 04:40:56;;;;;;;11.80;5.10;;;14.10;99.90;;;;;;5045440;28;20199;-74
2022/07/12 04:43:24;;;;;;;14.03;5.80;;;14.20;99.90;;;;;;5043858;28;20225;-74
2022/07/12 04:45:50;;;;;;;11.50;5.20;;;14.20;99.90;;;;;;5045943;28;20198;-73
2022/07/12 04:48:16;;;;;;;10.63;4.87;;;14.30;99.90;;;;;;5044171;28;20199;-74
2022/07/12 04:50:41;;;;;;;17.27;6.37;;;14.30;99.90;;;;;;5045246;28;20720;-73
2022/07/12 04:53:07;;;;;;;13.30;5.57;;;14.40;99.90;;;;;;5043403;28;20221;-74
2022/07/12 04:55:32;;;;;;;10.03;4.90;;;14.50;99.90;;;;;;5045485;28;20203;-73
2022/07/12 04:57:58;;;;;;;12.23;5.10;;;14.50;99.90;;;;;;5043341;28;20673;-74
2022/07/12 05:00:24;;;;;;;12.27;4.47;;;14.60;99.90;;;;;;5045260;28;20710;-75
2022/07/12 05:02:49;;;;;;;15.67;5.90;;;14.70;99.90;;;;;;5042972;28;20199;-74
2022/07/12 05:05:15;;;;;;;12.50;5.17;;;14.80;99.90;;;;;;5044613;28;20295;-73
2022/07/12 05:07:41;;;;;;;13.30;5.63;;;14.90;99.90;;;;;;5024460;28;20226;-72
2022/07/12 05:10:08;;;;;;;11.57;5.30;;;14.90;99.90;;;;;;5025130;28;20203;-74
2022/07/12 05:12:37;;;;;;;11.77;5.03;;;15.00;99.90;;;;;;5023533;28;20202;-73
2022/07/12 05:15:04;;;;;;;14.47;6.17;;;15.10;99.90;;;;;;5024482;28;20693;-74
2022/07/12 05:17:30;;;;;;;8.77;4.17;;;15.20;99.90;;;;;;5023337;28;20242;-74
2022/07/12 05:19:56;;;;;;;15.50;6.10;;;15.30;99.90;;;;;;5030414;28;20211;-73
2022/07/12 05:22:21;;;;;;;18.30;5.87;;;15.40;99.90;;;;;;5029551;28;20199;-74
2022/07/12 05:24:46;;;;;;;14.77;5.57;;;15.60;99.90;;;;;;5031431;28;20180;-74
2022/07/12 05:27:12;;;;;;;19.10;8.17;;;15.60;99.90;;;;;;5029536;28;20266;-73
2022/07/12 05:29:38;;;;;;;12.13;5.17;;;15.80;99.90;;;;;;5032080;28;20591;-74
2022/07/12 05:32:05;;;;;;;14.90;5.27;;;15.80;99.90;;;;;;5029284;28;20205;-74
2022/07/12 05:34:30;;;;;;;13.20;5.33;;;15.90;99.90;;;;;;5031747;28;20215;-74
2022/07/12 05:36:56;;;;;;;17.97;6.70;;;16.00;99.90;;;;;;5029081;28;20238;-75
2022/07/12 05:39:21;;;;;;;16.60;6.47;;;16.00;99.90;;;;;;5031758;28;20614;-74
2022/07/12 05:41:47;;;;;;;30.97;12.97;;;16.10;99.90;;;;;;5029567;28;20242;-75
2022/07/12 05:44:13;;;;;;;10.37;5.13;;;16.30;99.90;;;;;;5032036;28;20188;-74
2022/07/12 05:46:40;;;;;;;16.47;7.70;;;16.50;99.90;;;;;;5028964;28;20210;-75
2022/07/12 05:49:06;;;;;;;11.10;5.00;;;16.60;99.90;;;;;;5031420;28;20211;-74
2022/07/12 05:54:16;;;;;;;9.07;4.00;;;16.80;99.90;;;;;;5025093;28;20245;-73
2022/07/12 05:56:42;;;;;;;26.90;12.23;;;16.90;99.90;;;;;;5029317;28;20222;-73
2022/07/12 05:59:07;;;;;;;8.77;4.43;;;17.00;99.90;;;;;;5031419;28;20180;-75
2022/07/12 06:01:33;;;;;;;8.97;4.27;;;17.10;99.90;;;;;;5029804;28;20685;-74
2022/07/12 06:03:59;;;;;;;8.37;4.33;;;17.30;99.90;;;;;;5029685;28;20519;-74
2022/07/12 06:06:25;;;;;;;9.47;4.10;;;17.50;99.90;;;;;;5031155;28;20219;-75
2022/07/12 06:08:50;;;;;;;7.73;3.80;;;17.50;99.90;;;;;;5029472;28;20218;-73
2022/07/12 06:11:17;;;;;;;10.30;4.83;;;17.60;99.90;;;;;;5031565;28;20261;-73
2022/07/12 06:13:42;;;;;;;12.03;5.43;;;17.60;99.70;;;;;;5029850;28;20240;-73
2022/07/12 06:16:10;;;;;;;10.37;4.30;;;17.70;99.60;;;;;;5030483;28;20219;-75
2022/07/12 06:18:36;;;;;;;10.53;4.40;;;17.80;99.70;;;;;;5029323;28;20257;-74
2022/07/12 06:21:01;;;;;;;9.23;4.83;;;17.60;99.40;;;;;;5031243;28;20205;-74
2022/07/12 06:23:27;;;;;;;11.77;4.70;;;17.50;99.80;;;;;;5029246;28;20294;-75
2022/07/12 06:25:52;;;;;;;9.10;4.17;;;17.60;99.80;;;;;;5030942;28;20207;-74
2022/07/12 06:28:18;;;;;;;10.73;4.17;;;17.90;99.50;;;;;;5029277;28;20210;-73
2022/07/12 06:30:43;;;;;;;11.93;5.60;;;18.00;99.40;;;;;;5028116;28;20245;-75
2022/07/12 06:33:09;;;;;;;6.53;3.47;;;18.10;99.60;;;;;;5026162;28;20550;-75
2022/07/12 06:35:34;;;;;;;10.20;4.70;;;18.20;99.30;;;;;;5028065;28;20276;-74
2022/07/12 06:38:00;;;;;;;11.87;4.47;;;18.10;99.10;;;;;;5025874;28;20271;-74
2022/07/12 06:40:26;;;;;;;11.40;5.00;;;18.10;98.90;;;;;;5027674;28;20195;-74
2022/07/12 06:42:51;;;;;;;9.10;4.43;;;18.30;98.70;;;;;;5025796;28;20291;-75
2022/07/12 06:45:17;;;;;;;9.97;3.70;;;18.30;98.70;;;;;;5028423;28;20211;-75
2022/07/12 06:47:43;;;;;;;7.40;3.63;;;18.50;98.80;;;;;;5026086;28;20195;-81
2022/07/12 06:50:09;;;;;;;11.07;4.73;;;18.70;98.80;;;;;;5026375;28;20216;-79
2022/07/12 06:52:35;;;;;;;9.90;4.83;;;18.70;98.70;;;;;;5025557;28;20195;-74
2022/07/12 06:55:00;;;;;;;9.20;4.07;;;18.80;98.10;;;;;;5027585;28;20211;-73
2022/07/12 06:57:27;;;;;;;10.00;4.20;;;18.90;98.00;;;;;;5025668;28;20207;-74
2022/07/12 06:59:52;;;;;;;11.43;3.60;;;18.80;98.00;;;;;;5028179;28;20180;-74
2022/07/12 07:02:18;;;;;;;9.30;4.80;;;19.00;98.10;;;;;;5025735;28;20228;-72
2022/07/12 07:04:43;;;;;;;7.73;3.83;;;19.20;97.90;;;;;;5027888;28;20552;-74
2022/07/12 07:07:09;;;;;;;5.70;3.43;;;19.30;97.50;;;;;;5025377;28;20291;-72
2022/07/12 07:09:34;;;;;;;9.03;4.13;;;19.40;97.40;;;;;;5027695;28;20540;-74
2022/07/12 07:12:00;;;;;;;11.67;5.83;;;19.60;97.50;;;;;;5025377;28;20198;-73
2022/07/12 07:14:27;;;;;;;7.27;3.47;;;19.70;97.20;;;;;;5027291;28;20220;-73
2022/07/12 07:16:55;;;;;;;23.27;13.07;;;19.70;97.00;;;;;;5024336;28;20338;-76
2022/07/12 07:19:22;;;;;;;5.93;3.67;;;19.70;97.20;;;;;;5027922;28;20180;-82
2022/07/12 07:21:48;;;;;;;17.27;9.23;;;19.80;97.00;;;;;;5025323;28;20223;-77
2022/07/12 07:24:13;;;;;;;9.27;4.23;;;19.80;96.90;;;;;;5027885;28;20219;-76
2022/07/12 07:26:39;;;;;;;15.43;7.67;;;19.80;96.30;;;;;;5024989;28;20603;-81
2022/07/12 07:31:48;;;;;;;20.23;10.03;;;19.90;96.30;;;;;;5013839;28;20218;-80
2022/07/12 07:34:14;;;;;;;7.97;4.00;;;20.10;96.30;;;;;;5027485;28;20218;-77
2022/07/12 07:36:39;;;;;;;13.00;6.67;;;20.00;96.40;;;;;;5025273;28;20224;-76
2022/07/12 07:39:05;;;;;;;8.77;3.93;;;20.00;96.40;;;;;;5027157;28;20549;-76
2022/07/12 07:41:30;;;;;;;8.17;4.57;;;20.00;96.60;;;;;;5026091;28;20284;-77
2022/07/12 07:43:56;;;;;;;6.30;3.37;;;20.10;96.30;;;;;;5024551;28;20291;-76
2022/07/12 07:46:21;;;;;;;7.43;3.07;;;20.40;96.10;;;;;;5026875;28;20196;-78
2022/07/12 07:48:47;;;;;;;7.53;4.20;;;20.50;95.80;;;;;;5025258;28;20419;-79
2022/07/12 07:51:13;;;;;;;7.13;3.90;;;20.70;94.20;;;;;;5027179;28;20194;-77
2022/07/12 07:53:38;;;;;;;10.87;4.40;;;20.80;94.10;;;;;;5024904;28;20722;-73
2022/07/12 07:56:04;;;;;;;9.03;4.17;;;20.90;94.70;;;;;;5026440;28;20228;-81
2022/07/12 07:58:29;;;;;;;9.10;4.27;;;21.00;94.30;;;;;;5025318;28;20194;-80
2022/07/12 08:00:55;;;;;;;11.23;4.57;;;21.30;93.90;;;;;;5026370;28;20201;-79
2022/07/12 08:03:21;;;;;;;6.40;3.27;;;21.30;93.10;;;;;;5024736;28;20260;-75
2022/07/12 08:05:47;;;;;;;6.90;3.93;;;21.10;93.20;;;;;;5026276;28;20194;-81
2022/07/12 08:08:12;;;;;;;7.30;4.37;;;21.10;93.50;;;;;;5023649;28;20205;-84
2022/07/12 08:10:38;;;;;;;8.03;4.17;;;21.10;93.40;;;;;;5027417;28;20195;-83
2022/07/12 08:13:04;;;;;;;6.73;3.23;;;21.10;93.30;;;;;;5024392;28;20209;-78
2022/07/12 08:15:30;;;;;;;9.47;4.40;;;21.20;92.60;;;;;;5025738;28;20609;-79
2022/07/12 08:17:56;;;;;;;5.10;3.13;;;21.30;92.80;;;;;;5024188;28;20762;-80
2022/07/12 08:20:23;;;;;;;8.10;4.17;;;21.40;91.90;;;;;;5026645;28;20267;-76
2022/07/12 08:22:48;;;;;;;9.20;4.53;;;21.40;92.00;;;;;;5023952;28;20341;-74
2022/07/12 08:25:14;;;;;;;7.43;4.23;;;21.40;92.40;;;;;;5026144;28;20277;-75
2022/07/12 08:27:39;;;;;;;6.50;3.43;;;21.70;92.50;;;;;;5024065;28;20214;-81
2022/07/12 08:30:06;;;;;;;7.57;3.33;;;21.70;90.50;;;;;;5025684;28;20834;-75
2022/07/12 08:32:34;;;;;;;7.13;3.50;;;21.90;90.60;;;;;;5023956;28;20201;-77
2022/07/12 08:35:00;;;;;;;8.37;4.10;;;21.80;90.70;;;;;;5026076;28;20220;-77
2022/07/12 08:37:25;;;;;;;6.13;3.13;;;21.70;90.40;;;;;;5022224;28;20194;-80
2022/07/12 08:39:51;;;;;;;8.23;3.20;;;21.80;88.20;;;;;;5026357;28;20668;-81
2022/07/12 08:42:18;;;;;;;7.20;3.80;;;21.70;88.30;;;;;;5022182;28;20247;-77
2022/07/12 08:44:53;;;;;;;8.90;3.73;;;22.00;84.80;;;;;;5026007;28;20638;-78
2022/07/12 08:47:18;;;;;;;10.23;4.63;;;22.10;84.80;;;;;;5024452;28;20202;-79
2022/07/12 08:50:14;;;;;;;5.93;3.40;;;22.10;86.00;;;;;;5026657;28;20214;-80
2022/07/12 08:52:51;;;;;;;9.10;4.37;;;22.10;86.40;;;;;;5015617;28;20253;-80
2022/07/12 08:55:20;;;;;;;7.43;3.83;;;22.10;85.20;;;;;;5013543;28;20221;-80
2022/07/12 08:57:46;;;;;;;11.60;4.00;;;22.30;84.50;;;;;;5024056;28;20294;-79
2022/07/12 09:00:12;;;;;;;6.23;3.00;;;22.20;83.70;;;;;;5026412;28;20799;-78
2022/07/12 09:02:46;;;;;;;7.87;3.67;;;22.20;84.70;;;;;;5023386;28;20208;-78
2022/07/12 09:05:12;;;;;;;8.13;4.07;;;22.20;84.20;;;;;;5025628;28;20257;-76
2022/07/12 09:07:37;;;;;;;6.20;3.30;;;22.20;83.90;;;;;;5023102;28;20223;-74
2022/07/12 09:10:08;;;;;;;9.57;3.87;;;22.30;84.50;;;;;;5025836;28;20892;-72
2022/07/12 09:12:35;;;;;;;7.87;3.67;;;22.50;83.00;;;;;;5023422;28;20521;-80
2022/07/12 09:15:21;;;;;;;8.13;3.83;;;22.70;84.70;;;;;;5024968;28;20268;-75
2022/07/12 09:18:13;;;;;;;8.57;3.93;;;22.80;82.00;;;;;;5014496;28;20708;-78
2022/07/12 09:20:40;;;;;;;7.67;3.53;;;22.90;83.60;;;;;;5011153;28;20263;-80
2022/07/12 09:23:11;;;;;;;6.63;3.30;;;22.70;81.90;;;;;;5023780;28;20211;-78
2022/07/12 09:25:44;;;;;;;28.57;13.10;;;22.80;81.60;;;;;;5020946;28;21003;-88
2022/07/12 09:28:09;;;;;;;5.20;3.03;;;22.90;81.80;;;;;;5025864;28;20190;-80
2022/07/12 09:30:37;;;;;;;20.60;10.37;;;23.10;81.50;;;;;;5026282;28;20187;-89
2022/07/12 09:36:07;;;;;;;6.97;3.83;;;23.40;78.90;;;;;;5019529;28;20187;-71
2022/07/12 09:38:56;;;;;;;8.27;3.80;;;23.20;78.60;;;;;;5021676;28;20700;-81
2022/07/12 09:41:22;;;;;;;6.47;2.83;;;23.20;76.40;;;;;;5020340;28;20203;-77
2022/07/12 09:43:49;;;;;;;8.93;4.13;;;23.40;76.40;;;;;;5023295;28;20222;-79
2022/07/12 09:46:16;;;;;;;9.93;5.10;;;23.60;76.20;;;;;;5023844;28;20532;-76
2022/07/12 09:48:42;;;;;;;10.87;5.00;;;23.50;75.60;;;;;;5032244;28;20752;-77
2022/07/12 09:51:14;;;;;;;6.87;3.20;;;23.50;74.60;;;;;;5024420;28;20222;-78
2022/07/12 09:53:48;;;;;;;8.23;4.17;;;23.60;76.60;;;;;;5022799;28;20559;-77
2022/07/12 09:56:20;;;;;;;10.13;5.10;;;23.80;76.30;;;;;;5024578;28;20219;-78
2022/07/12 09:58:58;;;;;;;8.57;3.37;;;24.00;75.10;;;;;;5016809;28;20200;-76
2022/07/12 10:01:24;;;;;;;7.63;3.63;;;24.20;75.00;;;;;;5024928;28;20306;-80
2022/07/12 10:03:55;;;;;;;11.57;5.37;;;24.30;72.00;;;;;;5023148;28;20727;-79
2022/07/12 10:06:29;;;;;;;10.93;4.47;;;24.10;73.30;;;;;;5027546;28;20262;-79
2022/07/12 10:08:56;;;;;;;5.03;2.90;;;24.20;74.10;;;;;;5027959;28;20229;-83
2022/07/12 10:11:23;;;;;;;8.80;3.57;;;24.10;71.90;;;;;;5030558;28;20196;-88
2022/07/12 10:13:49;;;;;;;4.53;3.03;;;24.00;70.00;;;;;;5035350;28;20250;-88
2022/07/12 10:16:24;;;;;;;5.80;3.53;;;24.00;70.80;;;;;;5032488;28;20696;-84
2022/07/12 10:19:25;;;;;;;7.53;4.95;;;24.20;70.10;;;;;;5027338;28;20207;-87
2022/07/12 10:21:54;;;;;;;8.17;4.53;;;24.40;69.70;;;;;;5026395;28;20201;-86
2022/07/12 10:24:47;;;;;;;6.15;3.55;;;24.80;68.40;;;;;;5028183;28;20203;-83
2022/07/12 10:27:15;;;;;;;8.60;4.28;;;24.80;69.30;;;;;;5008832;28;20173;-85
2022/07/12 10:29:41;;;;;;;5.50;3.22;;;24.90;68.10;;;;;;5030202;28;20256;-84
2022/07/12 10:32:33;;;;;;;6.22;3.35;;;24.60;66.80;;;;;;5025476;28;20191;-84
2022/07/12 10:35:12;;;;;;;7.32;3.60;;;24.60;67.20;;;;;;5024955;28;20223;-84
2022/07/12 10:37:38;;;;;;;6.07;2.70;;;25.10;67.60;;;;;;5024855;28;20215;-85
2022/07/12 10:40:17;;;;;;;7.10;4.20;;;25.30;65.60;;;;;;5025760;28;20211;-84
2022/07/12 10:43:04;;;;;;;8.43;4.93;;;25.30;65.10;;;;;;5025743;28;20210;-87
2022/07/12 10:45:33;;;;;;;9.70;5.43;;;25.10;65.10;;;;;;5012564;28;20176;-89
2022/07/12 10:48:01;;;;;;;3.75;2.10;;;24.80;64.70;;;;;;5026455;28;20199;-82
2022/07/12 10:51:00;;;;;;;7.22;4.18;;;24.70;66.80;;;;;;5026730;28;21004;-82
2022/07/12 10:53:40;;;;;;;5.93;3.47;;;25.00;66.90;;;;;;5023254;28;20215;-82
2022/07/12 10:56:27;;;;;;;16.33;8.73;;;25.10;66.40;;;;;;5024116;28;20199;-84
2022/07/12 10:58:59;;;;;;;5.45;3.00;;;24.80;66.50;;;;;;5027679;28;20237;-80
2022/07/12 11:01:27;;;;;;;4.30;2.80;;;25.20;66.50;;;;;;5023111;28;20204;-83
2022/07/12 11:03:56;;;;;;;4.10;2.85;;;25.60;64.10;;;;;;5027986;28;20188;-81
2022/07/12 11:06:25;;;;;;;9.25;5.38;;;26.10;63.60;;;;;;5025097;28;20400;-82
2022/07/12 11:08:56;;;;;;;7.05;3.72;;;26.00;63.70;;;;;;5021174;28;20192;-83
2022/07/12 11:11:27;;;;;;;6.57;3.50;;;25.60;65.00;;;;;;5024116;28;20174;-83
2022/07/12 11:13:54;;;;;;;6.40;3.72;;;25.70;63.90;;;;;;5020715;28;20217;-83
2022/07/12 11:16:20;;;;;;;4.07;2.53;;;26.00;62.70;;;;;;5017786;28;20235;-83
2022/07/12 11:18:46;;;;;;;5.78;3.50;;;27.00;61.20;;;;;;5028281;28;20641;-84
2022/07/12 11:21:12;;;;;;;7.20;3.92;;;27.30;60.70;;;;;;5026836;28;20176;-83
2022/07/12 11:23:40;;;;;;;14.55;7.93;;;27.20;59.80;;;;;;5029536;28;20205;-84
2022/07/12 11:26:07;;;;;;;5.72;3.15;;;26.30;61.20;;;;;;5029242;28;20214;-81
2022/07/12 11:28:33;;;;;;;3.63;2.67;;;25.80;62.50;;;;;;5026841;28;20199;-80
2022/07/12 11:31:08;;;;;;;5.88;3.10;;;26.00;60.00;;;;;;5025337;28;20202;-77
2022/07/12 11:33:36;;;;;;;6.47;3.38;;;26.10;59.70;;;;;;5027045;28;20236;-76
2022/07/12 11:36:07;;;;;;;4.75;2.72;;;25.90;60.60;;;;;;5024552;28;20210;-80
2022/07/12 11:38:34;;;;;;;8.95;3.72;;;26.50;60.80;;;;;;5026879;28;20213;-78
2022/07/12 11:41:02;;;;;;;9.13;4.28;;;27.40;57.90;;;;;;5029495;28;20190;-77
2022/07/12 11:43:29;;;;;;;5.22;2.83;;;27.10;57.90;;;;;;5025676;28;20197;-75
2022/07/12 11:45:55;;;;;;;7.28;3.70;;;27.50;58.10;;;;;;5024204;28;20219;-81
2022/07/12 11:48:22;;;;;;;5.72;2.78;;;27.30;58.50;;;;;;5022037;28;20629;-83
2022/07/12 11:50:50;;;;;;;6.03;2.80;;;27.60;58.20;;;;;;5025080;28;20282;-81
2022/07/12 11:53:34;;;;;;;6.72;4.00;;;27.90;56.00;;;;;;5026695;28;20742;-77
2022/07/12 11:56:02;;;;;;;4.45;3.10;;;27.80;57.20;;;;;;5017724;28;20222;-77
2022/07/12 11:58:28;;;;;;;3.88;2.30;;;27.90;55.30;;;;;;5026537;28;20179;-74
2022/07/12 12:00:55;;;;;;;8.25;3.78;;;26.70;57.70;;;;;;5023823;28;20203;-76
2022/07/12 12:03:22;;;;;;;5.45;2.72;;;26.10;57.10;;;;;;5025956;28;20179;-77
2022/07/12 12:05:48;;;;;;;7.07;3.05;;;26.20;57.50;;;;;;5023068;28;20566;-75
2022/07/12 12:08:15;;;;;;;10.73;4.32;;;27.30;57.10;;;;;;5045614;28;20289;-75
2022/07/12 12:10:53;;;;;;;27.05;13.32;;;27.80;55.50;;;;;;5043419;28;20691;-75
2022/07/12 12:13:19;;;;;;;7.05;3.20;;;28.20;54.70;;;;;;5044645;28;20178;-75
2022/07/12 12:15:54;;;;;;;11.00;4.00;;;28.00;54.20;;;;;;5043259;28;20191;-78
2022/07/12 12:18:38;;;;;;;5.65;2.67;;;28.50;54.90;;;;;;5045900;28;20445;-78
2022/07/12 12:21:08;;;;;;;11.23;4.50;;;28.80;54.50;;;;;;5043497;28;20194;-78
2022/07/12 12:23:38;;;;;;;13.23;5.30;;;28.70;53.80;;;;;;5046301;28;20195;-78
2022/07/12 12:26:16;;;;;;;104.70;95.65;;;29.30;52.80;;;;;;5024445;28;20824;-77
2022/07/12 12:28:44;;;;;;;13.45;5.70;;;27.80;53.60;;;;;;5044725;28;20193;-76
2022/07/12 12:31:10;;;;;;;9.77;4.28;;;28.20;54.80;;;;;;5043427;28;20545;-76
2022/07/12 12:33:47;;;;;;;11.15;3.60;;;28.10;53.00;;;;;;5045154;28;20212;-76
2022/07/12 12:36:21;;;;;;;10.80;5.13;;;28.10;53.60;;;;;;5043172;28;20236;-74
2022/07/12 12:38:49;;;;;;;6.97;3.22;;;29.40;52.00;;;;;;5040762;28;20208;-75
2022/07/12 12:41:16;;;;;;;10.75;5.15;;;29.10;51.90;;;;;;5042432;28;20203;-74
2022/07/12 12:43:42;;;;;;;10.23;4.85;;;28.60;52.90;;;;;;5045259;28;20187;-76
2022/07/12 12:46:07;;;;;;;14.23;4.40;;;27.70;52.80;;;;;;5036881;28;20457;-78
2022/07/12 12:48:34;;;;;;;10.18;4.47;;;27.80;53.60;;;;;;5043451;28;20276;-78
2022/07/12 12:51:12;;;;;;;12.40;5.07;;;27.90;53.90;;;;;;5042602;28;20221;-78
2022/07/12 12:53:39;;;;;;;11.98;5.20;;;29.20;53.50;;;;;;5036048;28;20301;-79